sensor_id;sensor_type;location;lat;lon;timestamp;P1;durP1;ratioP1;P2;durP2;ratioP2
13795;SDS011;40911;51.552;9.874;2023-03-23T00:00:55;3.47;;;1.90;;
13795;SDS011;40911;51.552;9.874;2023-03-23T00:03:16;4.10;;;1.90;;
13795;SDS011;40911;51.552;9.874;2023-03-23T00:05:38;2.55;;;1.90;;
13795;SDS011;40911;51.552;9.874;2023-03-23T00:08:10;2.50;;;1.95;;
13795;SDS011;40911;51.552;9.874;2023-03-23T00:10:34;2.97;;;1.73;;
13795;SDS011;40911;51.552;9.874;2023-03-23T00:12:57;1.80;;;1.70;;
13795;SDS011;40911;51.552;9.874;2023-03-23T00:15:22;1.98;;;1.70;;
13795;SDS011;40911;51.552;9.874;2023-03-23T00:17:44;2.65;;;1.80;;
13795;SDS011;40911;51.552;9.874;2023-03-23T00:20:17;3.60;;;1.90;;
13795;SDS011;40911;51.552;9.874;2023-03-23T00:22:39;4.72;;;1.85;;
13795;SDS011;40911;51.552;9.874;2023-03-23T00:25:01;2.15;;;1.73;;
13795;SDS011;40911;51.552;9.874;2023-03-23T00:27:23;4.22;;;1.90;;
13795;SDS011;40911;51.552;9.874;2023-03-23T00:32:08;2.25;;;1.67;;
13795;SDS011;40911;51.552;9.874;2023-03-23T00:34:32;2.33;;;1.90;;
13795;SDS011;40911;51.552;9.874;2023-03-23T00:36:54;2.47;;;1.90;;
13795;SDS011;40911;51.552;9.874;2023-03-23T00:39:17;3.88;;;1.77;;
13795;SDS011;40911;51.552;9.874;2023-03-23T00:41:39;2.78;;;1.98;;
13795;SDS011;40911;51.552;9.874;2023-03-23T00:44:00;3.92;;;2.25;;
13795;SDS011;40911;51.552;9.874;2023-03-23T00:46:23;5.28;;;2.03;;
13795;SDS011;40911;51.552;9.874;2023-03-23T00:48:46;3.38;;;1.70;;
13795;SDS011;40911;51.552;9.874;2023-03-23T00:51:07;3.58;;;1.98;;
13795;SDS011;40911;51.552;9.874;2023-03-23T00:53:31;3.38;;;1.90;;
13795;SDS011;40911;51.552;9.874;2023-03-23T00:55:53;4.53;;;2.20;;
13795;SDS011;40911;51.552;9.874;2023-03-23T00:58:15;3.50;;;1.92;;
13795;SDS011;40911;51.552;9.874;2023-03-23T01:00:37;1.98;;;1.75;;
13795;SDS011;40911;51.552;9.874;2023-03-23T01:03:00;1.70;;;1.60;;
13795;SDS011;40911;51.552;9.874;2023-03-23T01:05:22;2.58;;;2.10;;
13795;SDS011;40911;51.552;9.874;2023-03-23T01:07:43;3.75;;;2.08;;
13795;SDS011;40911;51.552;9.874;2023-03-23T01:10:06;3.53;;;2.05;;
13795;SDS011;40911;51.552;9.874;2023-03-23T01:12:28;4.53;;;2.00;;
13795;SDS011;40911;51.552;9.874;2023-03-23T01:14:50;4.57;;;2.10;;
13795;SDS011;40911;51.552;9.874;2023-03-23T01:17:11;3.50;;;1.90;;
13795;SDS011;40911;51.552;9.874;2023-03-23T01:19:36;2.50;;;2.30;;
13795;SDS011;40911;51.552;9.874;2023-03-23T01:21:58;4.47;;;1.98;;
13795;SDS011;40911;51.552;9.874;2023-03-23T01:24:19;3.10;;;2.10;;
13795;SDS011;40911;51.552;9.874;2023-03-23T01:26:41;2.88;;;2.25;;
13795;SDS011;40911;51.552;9.874;2023-03-23T01:29:03;2.25;;;2.05;;
13795;SDS011;40911;51.552;9.874;2023-03-23T01:33:46;2.83;;;2.00;;
13795;SDS011;40911;51.552;9.874;2023-03-23T01:36:12;3.90;;;2.30;;
13795;SDS011;40911;51.552;9.874;2023-03-23T01:38:35;2.17;;;1.98;;
13795;SDS011;40911;51.552;9.874;2023-03-23T01:40:57;3.47;;;2.35;;
13795;SDS011;40911;51.552;9.874;2023-03-23T01:43:18;2.70;;;1.83;;
13795;SDS011;40911;51.552;9.874;2023-03-23T01:45:40;2.85;;;2.15;;
13795;SDS011;40911;51.552;9.874;2023-03-23T01:48:07;6.20;;;2.33;;
13795;SDS011;40911;51.552;9.874;2023-03-23T01:50:33;2.90;;;2.30;;
13795;SDS011;40911;51.552;9.874;2023-03-23T01:53:00;3.05;;;2.00;;
13795;SDS011;40911;51.552;9.874;2023-03-23T01:55:23;2.42;;;2.22;;
13795;SDS011;40911;51.552;9.874;2023-03-23T01:57:47;4.30;;;1.70;;
13795;SDS011;40911;51.552;9.874;2023-03-23T02:00:09;2.33;;;1.90;;
13795;SDS011;40911;51.552;9.874;2023-03-23T02:02:35;4.93;;;2.28;;
13795;SDS011;40911;51.552;9.874;2023-03-23T02:04:59;3.65;;;1.85;;
13795;SDS011;40911;51.552;9.874;2023-03-23T02:07:25;3.55;;;2.00;;
13795;SDS011;40911;51.552;9.874;2023-03-23T02:12:10;3.78;;;2.17;;
13795;SDS011;40911;51.552;9.874;2023-03-23T02:14:32;2.67;;;1.90;;
13795;SDS011;40911;51.552;9.874;2023-03-23T02:19:29;2.97;;;1.90;;
13795;SDS011;40911;51.552;9.874;2023-03-23T02:25:18;2.25;;;2.05;;
13795;SDS011;40911;51.552;9.874;2023-03-23T02:30:39;1.77;;;1.60;;
13795;SDS011;40911;51.552;9.874;2023-03-23T02:36:08;2.95;;;2.00;;
13795;SDS011;40911;51.552;9.874;2023-03-23T02:38:35;2.08;;;1.70;;
13795;SDS011;40911;51.552;9.874;2023-03-23T02:41:02;2.88;;;2.10;;
13795;SDS011;40911;51.552;9.874;2023-03-23T02:43:25;1.90;;;1.80;;
13795;SDS011;40911;51.552;9.874;2023-03-23T02:45:49;1.88;;;1.70;;
13795;SDS011;40911;51.552;9.874;2023-03-23T02:48:13;4.78;;;1.90;;
13795;SDS011;40911;51.552;9.874;2023-03-23T02:50:40;2.47;;;1.95;;
13795;SDS011;40911;51.552;9.874;2023-03-23T02:53:05;2.17;;;1.70;;
13795;SDS011;40911;51.552;9.874;2023-03-23T02:55:29;2.92;;;2.05;;
13795;SDS011;40911;51.552;9.874;2023-03-23T02:57:53;1.80;;;1.70;;
13795;SDS011;40911;51.552;9.874;2023-03-23T03:00:15;4.18;;;2.10;;
13795;SDS011;40911;51.552;9.874;2023-03-23T03:02:38;3.22;;;1.92;;
13795;SDS011;40911;51.552;9.874;2023-03-23T03:05:04;4.05;;;2.33;;
13795;SDS011;40911;51.552;9.874;2023-03-23T03:07:36;2.15;;;1.95;;
13795;SDS011;40911;51.552;9.874;2023-03-23T03:10:10;2.10;;;1.90;;
13795;SDS011;40911;51.552;9.874;2023-03-23T03:12:40;4.38;;;2.17;;
13795;SDS011;40911;51.552;9.874;2023-03-23T03:15:09;2.45;;;2.20;;
13795;SDS011;40911;51.552;9.874;2023-03-23T03:17:38;2.40;;;2.10;;
13795;SDS011;40911;51.552;9.874;2023-03-23T03:20:05;5.53;;;2.45;;
13795;SDS011;40911;51.552;9.874;2023-03-23T03:22:30;3.42;;;2.40;;
13795;SDS011;40911;51.552;9.874;2023-03-23T03:24:53;4.03;;;2.45;;
13795;SDS011;40911;51.552;9.874;2023-03-23T03:27:18;3.63;;;2.35;;
13795;SDS011;40911;51.552;9.874;2023-03-23T03:29:43;3.28;;;2.38;;
13795;SDS011;40911;51.552;9.874;2023-03-23T03:32:08;2.83;;;2.03;;
13795;SDS011;40911;51.552;9.874;2023-03-23T03:34:33;3.45;;;2.38;;
13795;SDS011;40911;51.552;9.874;2023-03-23T03:36:55;4.20;;;2.30;;
13795;SDS011;40911;51.552;9.874;2023-03-23T03:39:18;3.15;;;2.25;;
13795;SDS011;40911;51.552;9.874;2023-03-23T03:41:42;2.90;;;2.30;;
13795;SDS011;40911;51.552;9.874;2023-03-23T03:44:05;4.75;;;2.20;;
13795;SDS011;40911;51.552;9.874;2023-03-23T03:46:27;2.95;;;2.08;;
13795;SDS011;40911;51.552;9.874;2023-03-23T03:48:51;3.03;;;2.25;;
13795;SDS011;40911;51.552;9.874;2023-03-23T03:51:12;2.85;;;2.15;;
13795;SDS011;40911;51.552;9.874;2023-03-23T03:53:34;2.92;;;2.45;;
13795;SDS011;40911;51.552;9.874;2023-03-23T03:55:55;3.67;;;2.15;;
13795;SDS011;40911;51.552;9.874;2023-03-23T03:58:21;3.10;;;2.20;;
13795;SDS011;40911;51.552;9.874;2023-03-23T04:00:43;3.47;;;2.03;;
13795;SDS011;40911;51.552;9.874;2023-03-23T04:03:08;2.65;;;2.17;;
13795;SDS011;40911;51.552;9.874;2023-03-23T04:05:29;2.88;;;2.60;;
13795;SDS011;40911;51.552;9.874;2023-03-23T04:07:51;4.70;;;2.30;;
13795;SDS011;40911;51.552;9.874;2023-03-23T04:10:12;2.63;;;2.42;;
13795;SDS011;40911;51.552;9.874;2023-03-23T04:12:34;2.67;;;2.30;;
13795;SDS011;40911;51.552;9.874;2023-03-23T04:17:18;4.90;;;2.35;;
13795;SDS011;40911;51.552;9.874;2023-03-23T04:22:02;2.20;;;2.10;;
13795;SDS011;40911;51.552;9.874;2023-03-23T04:24:24;3.75;;;2.42;;
13795;SDS011;40911;51.552;9.874;2023-03-23T04:26:48;2.75;;;2.42;;
13795;SDS011;40911;51.552;9.874;2023-03-23T04:29:12;3.72;;;2.40;;
13795;SDS011;40911;51.552;9.874;2023-03-23T04:31:35;3.35;;;2.45;;
13795;SDS011;40911;51.552;9.874;2023-03-23T04:33:56;3.50;;;2.28;;
13795;SDS011;40911;51.552;9.874;2023-03-23T04:36:20;3.45;;;2.55;;
13795;SDS011;40911;51.552;9.874;2023-03-23T04:38:42;4.25;;;2.50;;
13795;SDS011;40911;51.552;9.874;2023-03-23T04:41:03;3.10;;;2.55;;
13795;SDS011;40911;51.552;9.874;2023-03-23T04:43:25;3.30;;;2.65;;
13795;SDS011;40911;51.552;9.874;2023-03-23T04:45:47;3.85;;;2.85;;
13795;SDS011;40911;51.552;9.874;2023-03-23T04:48:17;3.53;;;2.47;;
13795;SDS011;40911;51.552;9.874;2023-03-23T04:50:39;3.83;;;2.67;;
13795;SDS011;40911;51.552;9.874;2023-03-23T04:53:02;2.90;;;2.60;;
13795;SDS011;40911;51.552;9.874;2023-03-23T04:55:25;3.50;;;2.90;;
13795;SDS011;40911;51.552;9.874;2023-03-23T04:57:47;2.80;;;2.60;;
13795;SDS011;40911;51.552;9.874;2023-03-23T05:00:09;3.58;;;2.80;;
13795;SDS011;40911;51.552;9.874;2023-03-23T05:02:35;3.13;;;2.42;;
13795;SDS011;40911;51.552;9.874;2023-03-23T05:04:58;4.80;;;2.80;;
13795;SDS011;40911;51.552;9.874;2023-03-23T05:07:19;2.90;;;2.70;;
13795;SDS011;40911;51.552;9.874;2023-03-23T05:09:41;2.70;;;2.50;;
13795;SDS011;40911;51.552;9.874;2023-03-23T05:14:25;2.80;;;2.60;;
13795;SDS011;40911;51.552;9.874;2023-03-23T05:19:08;4.53;;;2.42;;
13795;SDS011;40911;51.552;9.874;2023-03-23T05:21:31;2.80;;;2.60;;
13795;SDS011;40911;51.552;9.874;2023-03-23T05:23:54;3.05;;;2.55;;
13795;SDS011;40911;51.552;9.874;2023-03-23T05:26:15;3.00;;;2.70;;
13795;SDS011;40911;51.552;9.874;2023-03-23T05:28:37;4.80;;;2.90;;
13795;SDS011;40911;51.552;9.874;2023-03-23T05:31:01;2.97;;;2.60;;
13795;SDS011;40911;51.552;9.874;2023-03-23T05:33:23;3.80;;;2.70;;
13795;SDS011;40911;51.552;9.874;2023-03-23T05:35:45;3.08;;;2.60;;
13795;SDS011;40911;51.552;9.874;2023-03-23T05:38:09;2.92;;;2.67;;
13795;SDS011;40911;51.552;9.874;2023-03-23T05:40:31;4.85;;;3.00;;
13795;SDS011;40911;51.552;9.874;2023-03-23T05:42:53;6.55;;;2.83;;
13795;SDS011;40911;51.552;9.874;2023-03-23T05:45:17;4.88;;;2.67;;
13795;SDS011;40911;51.552;9.874;2023-03-23T05:47:40;2.80;;;2.50;;
13795;SDS011;40911;51.552;9.874;2023-03-23T05:50:02;5.20;;;3.03;;
13795;SDS011;40911;51.552;9.874;2023-03-23T05:52:25;3.03;;;2.72;;
13795;SDS011;40911;51.552;9.874;2023-03-23T05:54:48;2.92;;;2.60;;
13795;SDS011;40911;51.552;9.874;2023-03-23T05:57:09;3.67;;;2.65;;
13795;SDS011;40911;51.552;9.874;2023-03-23T05:59:31;3.42;;;2.60;;
13795;SDS011;40911;51.552;9.874;2023-03-23T06:01:53;3.72;;;2.72;;
13795;SDS011;40911;51.552;9.874;2023-03-23T06:04:15;4.13;;;2.65;;
13795;SDS011;40911;51.552;9.874;2023-03-23T06:08:58;3.47;;;2.45;;
13795;SDS011;40911;51.552;9.874;2023-03-23T06:11:22;2.80;;;2.25;;
13795;SDS011;40911;51.552;9.874;2023-03-23T06:13:44;3.80;;;2.60;;
13795;SDS011;40911;51.552;9.874;2023-03-23T06:16:06;2.22;;;1.95;;
13795;SDS011;40911;51.552;9.874;2023-03-23T06:18:28;3.30;;;2.45;;
13795;SDS011;40911;51.552;9.874;2023-03-23T06:20:53;3.83;;;2.17;;
13795;SDS011;40911;51.552;9.874;2023-03-23T06:25:37;3.63;;;2.63;;
13795;SDS011;40911;51.552;9.874;2023-03-23T06:28:02;2.75;;;2.40;;
13795;SDS011;40911;51.552;9.874;2023-03-23T06:30:24;2.88;;;2.30;;
13795;SDS011;40911;51.552;9.874;2023-03-23T06:32:46;2.80;;;1.90;;
13795;SDS011;40911;51.552;9.874;2023-03-23T06:35:09;2.70;;;2.03;;
13795;SDS011;40911;51.552;9.874;2023-03-23T06:37:31;2.92;;;2.20;;
13795;SDS011;40911;51.552;9.874;2023-03-23T06:42:14;3.40;;;2.30;;
13795;SDS011;40911;51.552;9.874;2023-03-23T06:44:38;2.95;;;2.00;;
13795;SDS011;40911;51.552;9.874;2023-03-23T06:46:59;3.40;;;2.50;;
13795;SDS011;40911;51.552;9.874;2023-03-23T06:49:22;3.25;;;2.08;;
13795;SDS011;40911;51.552;9.874;2023-03-23T06:51:44;2.47;;;2.22;;
13795;SDS011;40911;51.552;9.874;2023-03-23T06:54:05;2.38;;;2.15;;
13795;SDS011;40911;51.552;9.874;2023-03-23T06:56:27;2.38;;;2.17;;
13795;SDS011;40911;51.552;9.874;2023-03-23T06:58:50;2.33;;;2.13;;
13795;SDS011;40911;51.552;9.874;2023-03-23T07:03:35;3.40;;;2.10;;
13795;SDS011;40911;51.552;9.874;2023-03-23T07:05:57;2.20;;;2.00;;
13795;SDS011;40911;51.552;9.874;2023-03-23T07:08:19;2.85;;;1.90;;
13795;SDS011;40911;51.552;9.874;2023-03-23T07:13:02;2.45;;;2.00;;
13795;SDS011;40911;51.552;9.874;2023-03-23T07:15:24;3.42;;;2.08;;
13795;SDS011;40911;51.552;9.874;2023-03-23T07:17:48;4.90;;;2.28;;
13795;SDS011;40911;51.552;9.874;2023-03-23T07:20:10;2.60;;;2.40;;
13795;SDS011;40911;51.552;9.874;2023-03-23T07:22:33;2.78;;;2.20;;
13795;SDS011;40911;51.552;9.874;2023-03-23T07:24:55;4.93;;;2.38;;
13795;SDS011;40911;51.552;9.874;2023-03-23T07:27:17;4.65;;;2.30;;
13795;SDS011;40911;51.552;9.874;2023-03-23T07:32:01;2.45;;;2.25;;
13795;SDS011;40911;51.552;9.874;2023-03-23T07:34:24;2.83;;;2.30;;
13795;SDS011;40911;51.552;9.874;2023-03-23T07:36:46;3.35;;;2.35;;
13795;SDS011;40911;51.552;9.874;2023-03-23T07:39:07;4.03;;;2.20;;
13795;SDS011;40911;51.552;9.874;2023-03-23T07:41:29;3.97;;;2.38;;
13795;SDS011;40911;51.552;9.874;2023-03-23T07:43:51;3.30;;;2.20;;
13795;SDS011;40911;51.552;9.874;2023-03-23T07:46:14;2.30;;;2.08;;
13795;SDS011;40911;51.552;9.874;2023-03-23T07:48:36;2.55;;;2.25;;
13795;SDS011;40911;51.552;9.874;2023-03-23T07:53:20;2.45;;;2.25;;
13795;SDS011;40911;51.552;9.874;2023-03-23T07:55:43;4.13;;;2.75;;
13795;SDS011;40911;51.552;9.874;2023-03-23T07:58:04;2.90;;;2.55;;
13795;SDS011;40911;51.552;9.874;2023-03-23T08:00:27;2.40;;;2.20;;
13795;SDS011;40911;51.552;9.874;2023-03-23T08:02:50;2.20;;;2.10;;
13795;SDS011;40911;51.552;9.874;2023-03-23T08:05:13;3.30;;;2.17;;
13795;SDS011;40911;51.552;9.874;2023-03-23T08:07:37;2.88;;;2.40;;
13795;SDS011;40911;51.552;9.874;2023-03-23T08:09:59;2.38;;;2.17;;
13795;SDS011;40911;51.552;9.874;2023-03-23T08:12:21;3.45;;;2.20;;
13795;SDS011;40911;51.552;9.874;2023-03-23T08:14:43;2.40;;;2.17;;
13795;SDS011;40911;51.552;9.874;2023-03-23T08:19:26;2.90;;;2.40;;
13795;SDS011;40911;51.552;9.874;2023-03-23T08:21:48;3.58;;;2.80;;
13795;SDS011;40911;51.552;9.874;2023-03-23T08:26:33;2.42;;;2.22;;
13795;SDS011;40911;51.552;9.874;2023-03-23T08:28:54;3.60;;;2.13;;
13795;SDS011;40911;51.552;9.874;2023-03-23T08:31:17;2.40;;;2.20;;
13795;SDS011;40911;51.552;9.874;2023-03-23T08:33:39;2.53;;;2.33;;
13795;SDS011;40911;51.552;9.874;2023-03-23T08:36:02;2.95;;;2.08;;
13795;SDS011;40911;51.552;9.874;2023-03-23T08:38:24;3.83;;;2.40;;
13795;SDS011;40911;51.552;9.874;2023-03-23T08:40:48;2.90;;;2.20;;
13795;SDS011;40911;51.552;9.874;2023-03-23T08:43:14;2.38;;;2.17;;
13795;SDS011;40911;51.552;9.874;2023-03-23T08:45:36;4.90;;;2.50;;
13795;SDS011;40911;51.552;9.874;2023-03-23T08:47:57;3.60;;;1.98;;
13795;SDS011;40911;51.552;9.874;2023-03-23T08:50:21;3.38;;;2.38;;
13795;SDS011;40911;51.552;9.874;2023-03-23T08:52:44;2.65;;;2.20;;
13795;SDS011;40911;51.552;9.874;2023-03-23T08:55:07;2.83;;;2.08;;
13795;SDS011;40911;51.552;9.874;2023-03-23T08:57:31;2.92;;;2.10;;
13795;SDS011;40911;51.552;9.874;2023-03-23T08:59:53;5.82;;;2.33;;
13795;SDS011;40911;51.552;9.874;2023-03-23T09:02:20;4.03;;;2.47;;
13795;SDS011;40911;51.552;9.874;2023-03-23T09:04:43;3.17;;;2.17;;
13795;SDS011;40911;51.552;9.874;2023-03-23T09:07:05;6.00;;;2.80;;
13795;SDS011;40911;51.552;9.874;2023-03-23T09:09:27;2.40;;;1.80;;
13795;SDS011;40911;51.552;9.874;2023-03-23T09:11:48;3.75;;;2.72;;
13795;SDS011;40911;51.552;9.874;2023-03-23T09:14:12;4.38;;;2.50;;
13795;SDS011;40911;51.552;9.874;2023-03-23T09:16:33;4.25;;;2.20;;
13795;SDS011;40911;51.552;9.874;2023-03-23T09:18:55;3.70;;;2.40;;
13795;SDS011;40911;51.552;9.874;2023-03-23T09:21:17;3.38;;;2.38;;
13795;SDS011;40911;51.552;9.874;2023-03-23T09:23:40;2.88;;;2.60;;
13795;SDS011;40911;51.552;9.874;2023-03-23T09:26:04;3.83;;;2.22;;
13795;SDS011;40911;51.552;9.874;2023-03-23T09:28:26;2.97;;;2.33;;
13795;SDS011;40911;51.552;9.874;2023-03-23T09:30:49;3.03;;;2.40;;
13795;SDS011;40911;51.552;9.874;2023-03-23T09:33:11;2.40;;;1.90;;
13795;SDS011;40911;51.552;9.874;2023-03-23T09:37:55;3.72;;;2.08;;
13795;SDS011;40911;51.552;9.874;2023-03-23T09:40:21;4.22;;;2.47;;
13795;SDS011;40911;51.552;9.874;2023-03-23T09:42:48;2.30;;;2.10;;
13795;SDS011;40911;51.552;9.874;2023-03-23T09:45:29;2.67;;;2.30;;
13795;SDS011;40911;51.552;9.874;2023-03-23T09:48:11;2.30;;;2.10;;
13795;SDS011;40911;51.552;9.874;2023-03-23T09:50:48;3.05;;;2.40;;
13795;SDS011;40911;51.552;9.874;2023-03-23T09:53:14;3.15;;;2.30;;
13795;SDS011;40911;51.552;9.874;2023-03-23T09:55:42;4.10;;;2.30;;
13795;SDS011;40911;51.552;9.874;2023-03-23T09:58:09;2.50;;;2.15;;
13795;SDS011;40911;51.552;9.874;2023-03-23T10:00:36;2.33;;;2.13;;
13795;SDS011;40911;51.552;9.874;2023-03-23T10:03:02;3.17;;;2.30;;
13795;SDS011;40911;51.552;9.874;2023-03-23T10:05:32;2.88;;;2.47;;
13795;SDS011;40911;51.552;9.874;2023-03-23T10:07:56;4.15;;;2.33;;
13795;SDS011;40911;51.552;9.874;2023-03-23T10:10:17;3.67;;;2.28;;
13795;SDS011;40911;51.552;9.874;2023-03-23T10:12:42;3.42;;;2.30;;
13795;SDS011;40911;51.552;9.874;2023-03-23T10:15:14;2.40;;;2.20;;
13795;SDS011;40911;51.552;9.874;2023-03-23T10:17:39;2.45;;;2.05;;
13795;SDS011;40911;51.552;9.874;2023-03-23T10:23:00;4.72;;;2.42;;
13795;SDS011;40911;51.552;9.874;2023-03-23T10:25:28;2.80;;;2.35;;
13795;SDS011;40911;51.552;9.874;2023-03-23T10:27:54;2.28;;;1.98;;
13795;SDS011;40911;51.552;9.874;2023-03-23T10:30:21;2.35;;;2.13;;
13795;SDS011;40911;51.552;9.874;2023-03-23T10:32:48;1.90;;;1.80;;
13795;SDS011;40911;51.552;9.874;2023-03-23T10:35:14;2.35;;;1.90;;
13795;SDS011;40911;51.552;9.874;2023-03-23T10:37:41;2.33;;;1.83;;
13795;SDS011;40911;51.552;9.874;2023-03-23T10:40:12;3.95;;;2.30;;
13795;SDS011;40911;51.552;9.874;2023-03-23T10:42:37;3.70;;;2.20;;
13795;SDS011;40911;51.552;9.874;2023-03-23T10:45:04;3.35;;;1.70;;
13795;SDS011;40911;51.552;9.874;2023-03-23T10:47:35;2.47;;;2.25;;
13795;SDS011;40911;51.552;9.874;2023-03-23T10:49:58;3.22;;;1.98;;
13795;SDS011;40911;51.552;9.874;2023-03-23T10:52:27;3.45;;;1.90;;
13795;SDS011;40911;51.552;9.874;2023-03-23T10:54:56;3.63;;;2.15;;
13795;SDS011;40911;51.552;9.874;2023-03-23T10:57:21;4.25;;;1.77;;
13795;SDS011;40911;51.552;9.874;2023-03-23T10:59:44;3.05;;;2.00;;
13795;SDS011;40911;51.552;9.874;2023-03-23T11:02:14;4.70;;;2.30;;
13795;SDS011;40911;51.552;9.874;2023-03-23T11:07:00;2.25;;;1.90;;
13795;SDS011;40911;51.552;9.874;2023-03-23T11:09:33;2.78;;;2.10;;
13795;SDS011;40911;51.552;9.874;2023-03-23T11:11:58;3.78;;;2.08;;
13795;SDS011;40911;51.552;9.874;2023-03-23T11:14:24;2.47;;;1.83;;
13795;SDS011;40911;51.552;9.874;2023-03-23T11:16:49;1.55;;;1.45;;
13795;SDS011;40911;51.552;9.874;2023-03-23T11:19:13;2.42;;;1.85;;
13795;SDS011;40911;51.552;9.874;2023-03-23T11:21:36;3.05;;;1.52;;
13795;SDS011;40911;51.552;9.874;2023-03-23T11:23:58;3.20;;;1.73;;
13795;SDS011;40911;51.552;9.874;2023-03-23T11:26:21;2.95;;;1.80;;
13795;SDS011;40911;51.552;9.874;2023-03-23T11:28:48;4.72;;;2.08;;
13795;SDS011;40911;51.552;9.874;2023-03-23T11:31:14;2.97;;;1.73;;
13795;SDS011;40911;51.552;9.874;2023-03-23T11:33:37;2.45;;;1.70;;
13795;SDS011;40911;51.552;9.874;2023-03-23T11:36:01;3.25;;;1.85;;
13795;SDS011;40911;51.552;9.874;2023-03-23T11:40:48;2.08;;;1.50;;
13795;SDS011;40911;51.552;9.874;2023-03-23T11:43:12;4.90;;;1.60;;
13795;SDS011;40911;51.552;9.874;2023-03-23T11:45:37;2.72;;;1.60;;
13795;SDS011;40911;51.552;9.874;2023-03-23T11:48:03;2.90;;;1.60;;
13795;SDS011;40911;51.552;9.874;2023-03-23T11:50:50;4.72;;;1.70;;
13795;SDS011;40911;51.552;9.874;2023-03-23T11:53:13;3.47;;;1.63;;
13795;SDS011;40911;51.552;9.874;2023-03-23T11:55:50;3.05;;;1.70;;
13795;SDS011;40911;51.552;9.874;2023-03-23T11:58:17;3.25;;;1.80;;
13795;SDS011;40911;51.552;9.874;2023-03-23T12:00:44;3.15;;;1.30;;
13795;SDS011;40911;51.552;9.874;2023-03-23T12:03:25;3.75;;;1.70;;
13795;SDS011;40911;51.552;9.874;2023-03-23T12:06:04;2.30;;;1.60;;
13795;SDS011;40911;51.552;9.874;2023-03-23T12:08:34;3.75;;;1.95;;
13795;SDS011;40911;51.552;9.874;2023-03-23T12:11:07;3.63;;;1.85;;
13795;SDS011;40911;51.552;9.874;2023-03-23T12:13:45;1.95;;;1.38;;
13795;SDS011;40911;51.552;9.874;2023-03-23T12:16:27;3.05;;;1.50;;
13795;SDS011;40911;51.552;9.874;2023-03-23T12:19:01;2.55;;;1.30;;
13795;SDS011;40911;51.552;9.874;2023-03-23T12:21:28;2.58;;;1.30;;
13795;SDS011;40911;51.552;9.874;2023-03-23T12:23:59;2.80;;;1.60;;
13795;SDS011;40911;51.552;9.874;2023-03-23T12:26:27;3.83;;;1.63;;
13795;SDS011;40911;51.552;9.874;2023-03-23T12:28:58;3.25;;;1.75;;
13795;SDS011;40911;51.552;9.874;2023-03-23T12:31:36;2.28;;;1.58;;
13795;SDS011;40911;51.552;9.874;2023-03-23T12:34:07;5.03;;;1.70;;
13795;SDS011;40911;51.552;9.874;2023-03-23T12:36:43;2.08;;;1.50;;
13795;SDS011;40911;51.552;9.874;2023-03-23T12:42:16;2.13;;;1.45;;
13795;SDS011;40911;51.552;9.874;2023-03-23T12:44:46;2.63;;;1.63;;
13795;SDS011;40911;51.552;9.874;2023-03-23T12:49:57;2.90;;;1.70;;
13795;SDS011;40911;51.552;9.874;2023-03-23T12:52:24;2.90;;;1.80;;
13795;SDS011;40911;51.552;9.874;2023-03-23T12:54:51;4.20;;;1.70;;
13795;SDS011;40911;51.552;9.874;2023-03-23T12:57:19;2.22;;;1.63;;
13795;SDS011;40911;51.552;9.874;2023-03-23T12:59:48;1.80;;;1.40;;
13795;SDS011;40911;51.552;9.874;2023-03-23T13:02:17;3.65;;;2.10;;
13795;SDS011;40911;51.552;9.874;2023-03-23T13:04:44;2.28;;;1.38;;
13795;SDS011;40911;51.552;9.874;2023-03-23T13:07:08;2.72;;;1.60;;
13795;SDS011;40911;51.552;9.874;2023-03-23T13:09:43;3.20;;;1.60;;
13795;SDS011;40911;51.552;9.874;2023-03-23T13:12:09;3.75;;;1.35;;
13795;SDS011;40911;51.552;9.874;2023-03-23T13:14:35;1.90;;;1.30;;
13795;SDS011;40911;51.552;9.874;2023-03-23T13:17:05;3.42;;;1.30;;
13795;SDS011;40911;51.552;9.874;2023-03-23T13:19:34;2.22;;;1.42;;
13795;SDS011;40911;51.552;9.874;2023-03-23T13:22:04;1.85;;;1.40;;
13795;SDS011;40911;51.552;9.874;2023-03-23T13:24:29;3.50;;;1.55;;
13795;SDS011;40911;51.552;9.874;2023-03-23T13:26:53;1.77;;;1.30;;
13795;SDS011;40911;51.552;9.874;2023-03-23T13:29:18;1.58;;;1.30;;
13795;SDS011;40911;51.552;9.874;2023-03-23T13:31:41;1.88;;;1.30;;
13795;SDS011;40911;51.552;9.874;2023-03-23T13:34:04;1.77;;;1.55;;
13795;SDS011;40911;51.552;9.874;2023-03-23T13:36:28;2.35;;;1.30;;
13795;SDS011;40911;51.552;9.874;2023-03-23T13:38:54;2.67;;;1.35;;
13795;SDS011;40911;51.552;9.874;2023-03-23T13:41:19;2.40;;;1.40;;
13795;SDS011;40911;51.552;9.874;2023-03-23T13:43:42;1.67;;;1.27;;
13795;SDS011;40911;51.552;9.874;2023-03-23T13:46:09;1.67;;;1.30;;
13795;SDS011;40911;51.552;9.874;2023-03-23T13:48:39;1.60;;;1.50;;
13795;SDS011;40911;51.552;9.874;2023-03-23T13:51:03;3.35;;;1.70;;
13795;SDS011;40911;51.552;9.874;2023-03-23T13:53:26;2.25;;;1.40;;
13795;SDS011;40911;51.552;9.874;2023-03-23T13:56:03;2.22;;;1.30;;
13795;SDS011;40911;51.552;9.874;2023-03-23T13:58:27;2.00;;;1.27;;
13795;SDS011;40911;51.552;9.874;2023-03-23T14:00:49;1.40;;;1.30;;
13795;SDS011;40911;51.552;9.874;2023-03-23T14:03:24;1.48;;;1.25;;
13795;SDS011;40911;51.552;9.874;2023-03-23T14:05:48;1.70;;;1.40;;
13795;SDS011;40911;51.552;9.874;2023-03-23T14:08:12;2.85;;;1.40;;
13795;SDS011;40911;51.552;9.874;2023-03-23T14:10:42;2.55;;;1.45;;
13795;SDS011;40911;51.552;9.874;2023-03-23T14:13:10;1.30;;;1.20;;
13795;SDS011;40911;51.552;9.874;2023-03-23T14:15:40;4.60;;;1.50;;
13795;SDS011;40911;51.552;9.874;2023-03-23T14:18:04;1.55;;;1.40;;
13795;SDS011;40911;51.552;9.874;2023-03-23T14:20:30;1.35;;;1.10;;
13795;SDS011;40911;51.552;9.874;2023-03-23T14:22:53;1.27;;;1.17;;
13795;SDS011;40911;51.552;9.874;2023-03-23T14:25:17;2.17;;;1.25;;
13795;SDS011;40911;51.552;9.874;2023-03-23T14:27:40;1.33;;;1.20;;
13795;SDS011;40911;51.552;9.874;2023-03-23T14:30:05;2.35;;;1.20;;
13795;SDS011;40911;51.552;9.874;2023-03-23T14:32:29;1.85;;;1.30;;
13795;SDS011;40911;51.552;9.874;2023-03-23T14:34:52;3.53;;;1.30;;
13795;SDS011;40911;51.552;9.874;2023-03-23T14:37:15;2.55;;;1.20;;
13795;SDS011;40911;51.552;9.874;2023-03-23T14:39:37;1.20;;;1.10;;
13795;SDS011;40911;51.552;9.874;2023-03-23T14:42:00;2.20;;;1.25;;
13795;SDS011;40911;51.552;9.874;2023-03-23T14:44:27;1.95;;;1.20;;
13795;SDS011;40911;51.552;9.874;2023-03-23T14:46:52;1.45;;;1.35;;
13795;SDS011;40911;51.552;9.874;2023-03-23T14:49:16;3.15;;;1.20;;
13795;SDS011;40911;51.552;9.874;2023-03-23T14:51:46;2.10;;;1.30;;
13795;SDS011;40911;51.552;9.874;2023-03-23T14:54:09;1.30;;;1.20;;
13795;SDS011;40911;51.552;9.874;2023-03-23T14:56:33;1.80;;;1.30;;
13795;SDS011;40911;51.552;9.874;2023-03-23T14:59:00;1.30;;;1.20;;
13795;SDS011;40911;51.552;9.874;2023-03-23T15:01:25;1.45;;;1.35;;
13795;SDS011;40911;51.552;9.874;2023-03-23T15:03:51;2.15;;;1.27;;
13795;SDS011;40911;51.552;9.874;2023-03-23T15:06:15;1.98;;;1.20;;
13795;SDS011;40911;51.552;9.874;2023-03-23T15:08:39;1.40;;;1.13;;
13795;SDS011;40911;51.552;9.874;2023-03-23T15:11:06;1.45;;;1.20;;
13795;SDS011;40911;51.552;9.874;2023-03-23T15:13:32;2.17;;;1.30;;
13795;SDS011;40911;51.552;9.874;2023-03-23T15:16:00;1.85;;;1.35;;
13795;SDS011;40911;51.552;9.874;2023-03-23T15:18:32;1.05;;;1.05;;
13795;SDS011;40911;51.552;9.874;2023-03-23T15:20:57;1.95;;;1.25;;
13795;SDS011;40911;51.552;9.874;2023-03-23T15:23:21;1.50;;;1.13;;
13795;SDS011;40911;51.552;9.874;2023-03-23T15:25:50;1.30;;;1.20;;
13795;SDS011;40911;51.552;9.874;2023-03-23T15:28:15;2.05;;;1.30;;
13795;SDS011;40911;51.552;9.874;2023-03-23T15:30:45;1.38;;;1.10;;
13795;SDS011;40911;51.552;9.874;2023-03-23T15:33:09;2.70;;;1.27;;
13795;SDS011;40911;51.552;9.874;2023-03-23T15:35:36;2.08;;;1.00;;
13795;SDS011;40911;51.552;9.874;2023-03-23T15:38:01;1.30;;;1.20;;